Time;durP1;ratioP1;P1;durP2;ratioP2;P2;SDS_P1;SDS_P2;PMS_P1;PMS_P2;Temp;Humidity;BMP_temperature;BMP_pressure;BME280_temperature;BME280_humidity;BME280_pressure;Samples;Min_cycle;Max_cycle;Signal;HPM_P1;HPM_P2
2022/03/28 00:01:27;;;;;;;;;;;;;;;18.27;58.94;102077.78;5067948;28;1785;-33
2022/03/28 00:03:53;;;;;;;;;;;;;;;18.17;59.30;102084.69;5069950;28;1790;-33
2022/03/28 00:06:26;;;;;;;;;;;;;;;18.09;59.45;102074.47;5074076;28;1930;-33
2022/03/28 00:09:02;;;;;;;;;;;;;;;18.05;59.17;102069.41;5071208;28;1509;-33
2022/03/28 00:11:32;;;;;;;;;;;;;;;18.04;59.48;102081.06;5061648;28;1837;-33
2022/03/28 00:14:01;;;;;;;;;;;;;;;18.01;59.21;102067.88;5065457;28;1795;-33
2022/03/28 00:16:32;;;;;;;;;;;;;;;17.98;59.38;102066.25;5062569;28;1745;-33
2022/03/28 00:19:01;;;;;;;;;;;;;;;17.96;59.31;102072.66;5066990;28;2060;-33
2022/03/28 00:21:33;;;;;;;;;;;;;;;17.95;59.33;102079.84;5073092;28;1609;-33
2022/03/28 00:24:02;;;;;;;;;;;;;;;17.92;59.15;102077.34;5069393;28;1666;-33
2022/03/28 00:26:30;;;;;;;;;;;;;;;17.91;59.62;102066.75;5067651;28;1981;-33
2022/03/28 00:28:58;;;;;;;;;;;;;;;17.90;59.18;102079.25;5063664;28;1516;-33
2022/03/28 00:31:26;;;;;;;;;;;;;;;17.85;59.81;102076.88;5059128;28;1779;-34
2022/03/28 00:33:52;;;;;;;;;;;;;;;17.86;59.01;102075.06;5072961;28;1750;-33
2022/03/28 00:36:22;;;;;;;;;;;;;;;17.84;59.41;102075.13;5073491;28;1963;-34
2022/03/28 00:39:04;;;;;;;;;;;;;;;17.81;59.17;102079.81;5068179;28;1640;-33
2022/03/28 00:41:35;;;;;;;;;;;;;;;17.78;59.35;102059.44;5070975;28;1738;-33
2022/03/28 00:44:05;;;;;;;;;;;;;;;17.77;59.51;102052.38;5062177;28;1877;-33
2022/03/28 00:46:32;;;;;;;;;;;;;;;17.74;59.08;102052.56;5066200;28;1971;-33
2022/03/28 00:48:59;;;;;;;;;;;;;;;17.75;59.44;102051.63;5061528;28;1533;-33
2022/03/28 00:51:29;;;;;;;;;;;;;;;17.74;59.44;102057.91;5065683;28;1843;-33
2022/03/28 00:53:58;;;;;;;;;;;;;;;17.73;59.40;102053.53;5065235;28;1750;-33
2022/03/28 00:56:25;;;;;;;;;;;;;;;17.72;59.57;102059.81;5061803;28;1860;-33
2022/03/28 00:59:00;;;;;;;;;;;;;;;17.69;59.38;102054.69;5060973;28;1792;-33
2022/03/28 01:01:27;;;;;;;;;;;;;;;17.70;58.99;102051.03;5059066;28;1822;-33
2022/03/28 01:03:54;;;;;;;;;;;;;;;17.69;59.35;102054.69;5070459;28;1825;-33
2022/03/28 01:06:20;;;;;;;;;;;;;;;17.69;59.42;102060.03;5069335;28;1910;-33
2022/03/28 01:08:47;;;;;;;;;;;;;;;17.68;59.36;102059.16;5064833;28;1701;-33
2022/03/28 01:11:17;;;;;;;;;;;;;;;17.64;59.33;102051.41;5069080;28;1804;-33
2022/03/28 01:13:55;;;;;;;;;;;;;;;17.65;59.48;102039.78;5070569;28;1451;-33
2022/03/28 01:18:05;;;;;;;;;;;;;;;17.67;59.44;102067.28;5062524;28;1892;-33
2022/03/28 01:19:26;;;;;;;;;;;;;;;17.63;58.73;102050.56;5059940;28;1638;-33
2022/03/28 01:22:02;;;;;;;;;;;;;;;17.67;59.68;102053.91;5065424;28;1619;-33
2022/03/28 01:24:39;;;;;;;;;;;;;;;17.64;59.77;102052.28;5068805;28;1629;-34
2022/03/28 01:27:12;;;;;;;;;;;;;;;17.65;59.29;102059.34;5071119;28;1910;-33
2022/03/28 01:29:40;;;;;;;;;;;;;;;17.64;59.01;102057.63;5063130;28;1817;-33
2022/03/28 01:32:09;;;;;;;;;;;;;;;17.61;59.48;102062.31;5063966;28;1766;-33
2022/03/28 01:34:38;;;;;;;;;;;;;;;17.60;59.13;102060.59;5068915;28;1490;-33
2022/03/28 01:37:06;;;;;;;;;;;;;;;17.58;59.55;102074.06;5068849;28;1634;-34
2022/03/28 01:39:36;;;;;;;;;;;;;;;17.60;59.30;102076.63;5062418;28;1801;-33
2022/03/28 01:42:05;;;;;;;;;;;;;;;17.58;59.51;102074.06;5070012;28;1871;-33
2022/03/28 01:44:32;;;;;;;;;;;;;;;17.59;59.32;102080.28;5066716;28;1485;-33
2022/03/28 01:46:59;;;;;;;;;;;;;;;17.58;59.40;102079.41;5065032;28;1902;-34
2022/03/28 01:49:28;;;;;;;;;;;;;;;17.58;59.04;102089.25;5060712;28;1578;-34
2022/03/28 01:51:56;;;;;;;;;;;;;;;17.56;59.07;102062.59;5060964;28;1958;-33
2022/03/28 01:54:28;;;;;;;;;;;;;;;17.56;58.16;102078.63;5066893;28;1714;-33
2022/03/28 01:56:54;;;;;;;;;;;;;;;17.56;59.15;102086.66;5060504;28;1814;-33
2022/03/28 01:59:21;;;;;;;;;;;;;;;17.55;59.29;102078.72;5060432;28;1705;-33
2022/03/28 05:08:24;;;;;;;;;;;;;;;20.07;54.51;102107.69;5113798;27;1540;-32
2022/03/28 05:10:51;;;;;;;;;;;;;;;20.13;54.54;102103.69;5028864;27;12001;-32
2022/03/28 05:16:00;;;;;;;;;;;;;;;20.12;54.44;102102.00;5045611;28;2346;-32
2022/03/28 05:18:32;;;;;;;;;;;;;;;20.04;53.37;102099.84;5042881;28;1541;-32
2022/03/28 05:21:03;;;;;;;;;;;;;;;20.26;53.10;102100.03;5029167;28;2377;-32
2022/03/28 05:23:35;;;;;;;;;;;;;;;20.42;52.82;102109.66;5007002;28;11349;-32
2022/03/28 05:26:03;;;;;;;;;;;;;;;20.56;52.63;102108.66;5050402;28;1969;-32
2022/03/28 05:28:29;;;;;;;;;;;;;;;20.66;51.27;102107.88;5044879;28;1974;-32
2022/03/28 05:30:58;;;;;;;;;;;;;;;20.79;52.39;102101.56;5037446;28;1532;-32
2022/03/28 05:33:27;;;;;;;;;;;;;;;20.85;51.18;102096.63;5039621;28;3400;-32
2022/03/28 05:35:55;;;;;;;;;;;;;;;20.82;52.34;102112.13;5046910;28;1629;-33
2022/03/28 05:41:28;;;;;;;;;;;;;;;20.85;51.59;102111.91;5055834;28;3314;-32
2022/03/28 05:43:59;;;;;;;;;;;;;;;20.84;51.25;102099.41;5048404;28;3918;-33
2022/03/28 05:46:29;;;;;;;;;;;;;;;20.78;51.21;102110.63;5043549;28;2140;-32
2022/03/28 05:48:59;;;;;;;;;;;;;;;20.86;50.80;102105.53;5045190;28;4707;-33
2022/03/28 05:51:29;;;;;;;;;;;;;;;20.85;50.64;102101.16;5050563;28;2381;-34
2022/03/28 05:53:59;;;;;;;;;;;;;;;20.84;51.42;102094.03;5043621;28;2080;-33
2022/03/28 05:56:35;;;;;;;;;;;;;;;20.82;50.93;102095.97;5053239;28;1950;-33
2022/03/28 05:59:02;;;;;;;;;;;;;;;20.88;51.83;102083.91;5047085;28;1576;-35
2022/03/28 06:01:29;;;;;;;;;;;;;;;20.94;50.82;102092.38;5047243;28;1596;-32
2022/03/28 06:03:55;;;;;;;;;;;;;;;20.71;51.56;102099.47;5047380;28;1625;-32
2022/03/28 06:06:26;;;;;;;;;;;;;;;20.22;53.39;102093.16;5052265;28;1977;-32
2022/03/28 06:08:56;;;;;;;;;;;;;;;19.91;54.28;102088.28;5068051;28;1924;-32
2022/03/28 06:11:44;;;;;;;;;;;;;;;19.70;54.40;102083.44;5067461;28;1798;-33
2022/03/28 06:14:14;;;;;;;;;;;;;;;19.43;55.18;102100.47;5066072;28;1535;-32
2022/03/28 06:16:43;;;;;;;;;;;;;;;19.32;55.39;102096.81;5057290;28;1675;-32
2022/03/28 06:19:12;;;;;;;;;;;;;;;19.25;54.78;102110.63;5054187;28;1830;-33
2022/03/28 06:21:40;;;;;;;;;;;;;;;19.18;55.69;102105.78;5047844;28;1798;-33
2022/03/28 06:24:12;;;;;;;;;;;;;;;19.16;55.22;102107.72;5044372;28;1688;-33
2022/03/28 06:26:49;;;;;;;;;;;;;;;19.16;56.28;102107.72;5049423;28;2088;-34
2022/03/28 06:29:19;;;;;;;;;;;;;;;19.14;56.03;102105.16;5044105;28;1417;-33
2022/03/28 06:31:48;;;;;;;;;;;;;;;19.18;55.66;102113.84;5049718;28;1667;-33
2022/03/28 06:34:15;;;;;;;;;;;;;;;19.18;56.51;102108.47;5059310;28;1695;-33
2022/03/28 06:36:44;;;;;;;;;;;;;;;19.15;56.45;102106.88;5050798;28;1736;-33
2022/03/28 06:39:13;;;;;;;;;;;;;;;19.09;55.92;102099.25;5052799;28;1513;-32
2022/03/28 06:41:42;;;;;;;;;;;;;;;19.14;56.77;102098.94;5052075;28;1585;-32
2022/03/28 06:44:11;;;;;;;;;;;;;;;19.17;56.88;102098.72;5040995;28;1805;-32
2022/03/28 06:46:40;;;;;;;;;;;;;;;19.18;57.57;102105.78;5054016;28;1971;-33
2022/03/28 06:49:09;;;;;;;;;;;;;;;19.17;57.16;102098.72;5058875;28;1495;-34
2022/03/28 06:51:36;;;;;;;;;;;;;;;19.18;57.00;102108.47;5050927;28;1444;-32
2022/03/28 06:54:07;;;;;;;;;;;;;;;19.17;57.21;102104.09;5067227;28;1723;-32
2022/03/28 06:56:34;;;;;;;;;;;;;;;19.14;58.26;102104.28;5062726;28;1514;-33
2022/03/28 06:59:02;;;;;;;;;;;;;;;19.09;58.21;102101.94;5052421;28;1918;-34
2022/03/28 07:01:34;;;;;;;;;;;;;;;19.04;58.50;102099.56;5050248;28;1851;-33
2022/03/28 07:06:50;;;;;;;;;;;;;;;19.15;57.91;102112.22;5038474;28;2329;-33
2022/03/28 07:09:28;;;;;;;;;;;;;;;19.46;56.97;102100.28;5050310;28;1666;-33
2022/03/28 07:14:46;;;;;;;;;;;;;;;19.78;57.84;102081.09;5057769;28;2305;-34
2022/03/28 07:17:13;;;;;;;;;;;;;;;19.97;57.79;102088.69;5061699;28;1942;-33
2022/03/28 07:19:43;;;;;;;;;;;;;;;20.44;56.83;102078.16;5070985;28;1307;-33
2022/03/28 07:25:00;;;;;;;;;;;;;;;20.65;55.33;102094.53;5065735;28;2599;-34
2022/03/28 07:30:12;;;;;;;;;;;;;;;20.66;56.10;102082.81;5056440;28;1851;-33
2022/03/28 07:32:42;;;;;;;;;;;;;;;20.30;56.63;102089.91;5043057;28;2108;-33
2022/03/28 07:35:35;;;;;;;;;;;;;;;19.91;57.44;102083.75;5066866;28;1709;-33
2022/03/28 07:38:11;;;;;;;;;;;;;;;19.76;59.07;102083.03;5059039;28;1551;-33
2022/03/28 07:40:38;;;;;;;;;;;;;;;19.70;59.09;102077.22;5058800;28;1893;-33
2022/03/28 07:43:10;;;;;;;;;;;;;;;19.64;59.25;102081.19;5059944;28;1805;-33
2022/03/28 07:45:40;;;;;;;;;;;;;;;19.57;59.31;102069.16;5052326;28;1691;-34
2022/03/28 07:48:10;;;;;;;;;;;;;;;19.47;58.79;102063.56;5054050;28;1910;-33
2022/03/28 07:50:43;;;;;;;;;;;;;;;19.38;58.60;102070.44;5054656;28;1627;-33
2022/03/28 07:53:11;;;;;;;;;;;;;;;19.33;58.58;102063.69;5057064;28;1876;-33
2022/03/28 07:55:37;;;;;;;;;;;;;;;19.30;58.63;102055.81;5064517;28;1846;-33
2022/03/28 07:58:07;;;;;;;;;;;;;;;19.26;58.93;102077.50;5070003;28;1802;-33
2022/03/28 08:00:43;;;;;;;;;;;;;;;19.23;59.97;102079.53;5053585;28;1447;-33
2022/03/28 08:03:13;;;;;;;;;;;;;;;19.20;60.05;102066.31;5059494;28;1627;-34
2022/03/28 08:08:21;;;;;;;;;;;;;;;19.16;59.61;102067.50;5066772;28;1910;-33
2022/03/28 08:10:50;;;;;;;;;;;;;;;19.13;60.01;102054.31;5064406;28;1384;-34
2022/03/28 08:13:19;;;;;;;;;;;;;;;19.11;59.72;102040.16;5061875;28;1754;-33
2022/03/28 08:15:48;;;;;;;;;;;;;;;19.13;60.08;102057.84;5071460;28;1627;-33
2022/03/28 08:18:21;;;;;;;;;;;;;;;19.09;59.72;102048.31;5067313;28;1876;-33
2022/03/28 08:20:59;;;;;;;;;;;;;;;19.07;59.92;102037.69;5056610;28;1905;-34
2022/03/28 08:23:27;;;;;;;;;;;;;;;19.05;59.66;102028.88;5068124;28;1058;-33
2022/03/28 08:26:04;;;;;;;;;;;;;;;19.06;59.10;102040.50;5062988;28;1085;-34
2022/03/28 08:28:33;;;;;;;;;;;;;;;19.06;59.45;102038.66;5062515;28;1977;-33
2022/03/28 08:31:00;;;;;;;;;;;;;;;19.05;59.05;102042.28;5052469;28;1718;-33
2022/03/28 08:33:29;;;;;;;;;;;;;;;19.04;59.61;102039.72;5057689;28;1816;-33
2022/03/28 08:35:59;;;;;;;;;;;;;;;19.05;59.91;102025.34;5062997;28;1463;-34
2022/03/28 08:41:12;;;;;;;;;;;;;;;18.98;59.60;102024.91;5065736;28;2415;-33
2022/03/28 08:43:40;;;;;;;;;;;;;;;18.98;59.75;102024.03;5058972;28;1050;-33
2022/03/28 08:46:19;;;;;;;;;;;;;;;18.97;59.36;102015.16;5070161;28;1543;-33
2022/03/28 08:48:52;;;;;;;;;;;;;;;18.95;59.71;102025.13;5065172;28;1971;-33
2022/03/28 08:51:20;;;;;;;;;;;;;;;18.93;59.43;102016.31;5063293;28;1595;-33
2022/03/28 08:54:03;;;;;;;;;;;;;;;18.92;59.50;102009.25;5065669;28;1631;-33
2022/03/28 08:56:30;;;;;;;;;;;;;;;18.88;59.24;102008.59;5066460;28;1864;-33
2022/03/28 08:59:00;;;;;;;;;;;;;;;18.89;59.35;101998.72;5061660;28;1048;-33
2022/03/28 09:01:27;;;;;;;;;;;;;;;18.90;59.28;102000.47;5058611;28;1957;-33
2022/03/28 09:04:03;;;;;;;;;;;;;;;18.88;59.40;102003.25;5057098;28;1648;-33
2022/03/28 09:06:36;;;;;;;;;;;;;;;18.87;59.29;101996.16;5062868;28;1563;-33
2022/03/28 09:09:13;;;;;;;;;;;;;;;18.82;60.06;101982.22;5063831;28;1975;-33
2022/03/28 09:11:42;;;;;;;;;;;;;;;18.80;59.52;101986.81;5063930;28;1671;-33
2022/03/28 09:14:10;;;;;;;;;;;;;;;18.85;59.41;101986.50;5065168;28;1039;-33
2022/03/28 09:19:18;;;;;;;;;;;;;;;18.82;59.77;101979.53;5057866;28;1595;-33
2022/03/28 09:24:53;;;;;;;;;;;;;;;18.82;59.06;101982.22;5056442;28;1867;-33
2022/03/28 09:27:23;;;;;;;;;;;;;;;18.78;59.16;101977.13;5053172;28;1995;-33
2022/03/28 09:30:08;;;;;;;;;;;;;;;18.77;58.44;101964.72;5065465;28;1688;-34
2022/03/28 09:32:37;;;;;;;;;;;;;;;18.77;57.72;101962.03;5051223;28;1561;-34
2022/03/28 09:35:07;;;;;;;;;;;;;;;18.79;58.23;101965.44;5052074;28;1783;-34
2022/03/28 09:37:51;;;;;;;;;;;;;;;18.78;57.52;101947.66;5054051;28;1692;-34
2022/03/28 09:40:31;;;;;;;;;;;;;;;18.75;57.43;101956.75;5054515;28;2998;-36
2022/03/28 09:43:19;;;;;;;;;;;;;;;18.76;56.96;101952.25;5062862;28;1444;-34
2022/03/28 09:45:48;;;;;;;;;;;;;;;18.65;57.15;101945.81;5052072;28;1553;-34
2022/03/28 09:48:27;;;;;;;;;;;;;;;18.77;57.24;101941.44;5052853;28;1906;-34
2022/03/28 09:50:57;;;;;;;;;;;;;;;18.95;56.46;101922.41;5053145;28;1615;-33
2022/03/28 09:53:27;;;;;;;;;;;;;;;19.08;55.98;101929.47;5062903;28;1033;-34
2022/03/28 09:55:58;;;;;;;;;;;;;;;19.08;57.13;101928.63;5071238;28;1505;-34
2022/03/28 09:58:35;;;;;;;;;;;;;;;19.10;56.43;101910.63;5044641;28;1675;-33
2022/03/28 10:01:02;;;;;;;;;;;;;;;19.09;56.54;101908.88;5062695;28;1521;-34
2022/03/28 10:03:37;;;;;;;;;;;;;;;19.04;57.59;101916.41;5065362;28;1523;-34
2022/03/28 10:06:05;;;;;;;;;;;;;;;18.95;57.44;101912.53;5069175;28;1309;-34
2022/03/28 10:08:35;;;;;;;;;;;;;;;18.87;58.13;101915.75;5064462;28;1906;-34
2022/03/28 10:11:08;;;;;;;;;;;;;;;18.86;57.81;101907.81;5066295;28;921;-34
2022/03/28 10:13:35;;;;;;;;;;;;;;;18.93;58.04;101913.63;5049490;28;1564;-34
2022/03/28 10:16:03;;;;;;;;;;;;;;;18.92;57.86;101910.09;5049132;28;1753;-35
2022/03/28 10:18:35;;;;;;;;;;;;;;;18.89;57.27;101891.53;5053851;28;1716;-36
2022/03/28 10:21:06;;;;;;;;;;;;;;;18.85;58.32;101884.66;5054232;28;1584;-35
2022/03/28 10:23:35;;;;;;;;;;;;;;;18.90;58.04;101898.63;5059713;28;1524;-37
2022/03/28 10:26:34;;;;;;;;;;;;;;;18.92;58.12;101891.31;5052858;28;1664;-36
2022/03/28 10:29:04;;;;;;;;;;;;;;;18.92;58.67;101885.97;5052254;28;1901;-36
2022/03/28 10:31:34;;;;;;;;;;;;;;;18.96;58.18;101887.47;5045645;28;1812;-35
2022/03/28 10:34:08;;;;;;;;;;;;;;;18.88;57.95;101871.91;5054365;28;1973;-35
2022/03/28 10:36:39;;;;;;;;;;;;;;;18.85;58.28;101868.59;5045738;28;1431;-35
2022/03/28 10:39:24;;;;;;;;;;;;;;;18.83;58.56;101866.00;5054735;28;1900;-35
2022/03/28 10:41:54;;;;;;;;;;;;;;;18.84;58.78;101864.16;5051777;28;1649;-35
2022/03/28 10:44:23;;;;;;;;;;;;;;;18.84;58.44;101864.16;5052649;28;1669;-35
2022/03/28 10:47:12;;;;;;;;;;;;;;;18.84;58.67;101862.38;5049547;28;1544;-35
2022/03/28 10:49:58;;;;;;;;;;;;;;;18.85;58.72;101858.72;5048532;28;1978;-35
2022/03/28 10:52:25;;;;;;;;;;;;;;;18.89;58.18;101854.00;5055333;28;1651;-35
2022/03/28 10:54:52;;;;;;;;;;;;;;;18.90;58.86;101860.22;5045643;28;1915;-35
2022/03/28 10:57:38;;;;;;;;;;;;;;;18.84;58.82;101861.50;5045869;28;1806;-35
2022/03/28 11:00:09;;;;;;;;;;;;;;;18.79;58.83;101836.81;5051781;28;1825;-35
2022/03/28 11:02:38;;;;;;;;;;;;;;;18.74;58.84;101830.91;5044960;28;1976;-35
2022/03/28 11:05:10;;;;;;;;;;;;;;;18.76;58.49;101831.66;5057536;28;1762;-35
2022/03/28 11:07:36;;;;;;;;;;;;;;;18.79;59.23;101828.78;5055926;28;1510;-35
2022/03/28 11:10:05;;;;;;;;;;;;;;;18.81;58.24;101825.06;5059314;28;1968;-35
2022/03/28 11:12:34;;;;;;;;;;;;;;;18.92;59.01;101827.00;5055177;28;1613;-35
2022/03/28 11:15:05;;;;;;;;;;;;;;;18.98;59.00;101812.28;5053843;28;1841;-35
2022/03/28 11:17:35;;;;;;;;;;;;;;;18.94;58.89;101824.19;5045571;28;1811;-35
2022/03/28 11:20:18;;;;;;;;;;;;;;;18.89;58.85;101805.75;5056135;28;1542;-35
2022/03/28 11:22:51;;;;;;;;;;;;;;;18.84;57.96;101811.47;5051157;28;1500;-35
2022/03/28 11:25:41;;;;;;;;;;;;;;;18.93;59.32;101795.69;5048094;28;1882;-35
2022/03/28 11:28:17;;;;;;;;;;;;;;;18.86;59.32;101782.72;5052338;28;1902;-34
2022/03/28 11:30:55;;;;;;;;;;;;;;;18.91;59.46;101777.03;5045453;28;2015;-34
2022/03/28 11:33:23;;;;;;;;;;;;;;;18.95;59.49;101783.03;5050262;28;1546;-34
2022/03/28 11:36:01;;;;;;;;;;;;;;;18.84;59.51;101773.94;5059340;28;1584;-34
2022/03/28 11:38:49;;;;;;;;;;;;;;;18.81;59.38;101765.25;5056551;28;1381;-33
2022/03/28 11:41:19;;;;;;;;;;;;;;;18.80;59.59;101761.72;5056090;28;1562;-34
2022/03/28 11:43:55;;;;;;;;;;;;;;;18.76;59.85;101751.28;5045013;28;1773;-33
2022/03/28 11:46:24;;;;;;;;;;;;;;;18.73;59.91;101738.97;5047628;28;2051;-34
2022/03/28 11:48:52;;;;;;;;;;;;;;;18.85;59.76;101746.16;5052307;28;1984;-33
2022/03/28 11:51:22;;;;;;;;;;;;;;;18.86;59.76;101725.56;5044052;28;1669;-33
2022/03/28 11:53:57;;;;;;;;;;;;;;;18.92;59.67;101733.19;5060795;28;1693;-33
2022/03/28 11:58:14;;;;;;;;;;;;;;;18.85;59.61;101729.22;5054193;28;1719;-33
2022/03/28 11:59:47;;;;;;;;;;;;;;;18.84;59.89;101722.13;5045706;28;1438;-33
2022/03/28 12:02:15;;;;;;;;;;;;;;;18.81;60.25;101714.34;5051255;28;1689;-34
2022/03/28 12:04:45;;;;;;;;;;;;;;;18.86;59.59;101705.00;5052908;28;1857;-34
2022/03/28 12:07:12;;;;;;;;;;;;;;;18.88;59.25;101696.84;5052979;28;1695;-34
2022/03/28 12:09:41;;;;;;;;;;;;;;;18.95;59.31;101692.75;5052063;28;1973;-34
2022/03/28 12:12:09;;;;;;;;;;;;;;;19.02;59.66;101687.78;5044983;28;1609;-33
2022/03/28 12:14:40;;;;;;;;;;;;;;;18.98;59.49;101676.44;5034299;28;1704;-33
2022/03/28 12:17:08;;;;;;;;;;;;;;;18.91;59.43;101685.03;5036016;28;1926;-33
2022/03/28 12:19:35;;;;;;;;;;;;;;;18.96;59.72;101670.34;5051625;28;1808;-34
2022/03/28 12:22:13;;;;;;;;;;;;;;;18.95;59.46;101668.63;5049901;28;1726;-34
2022/03/28 12:24:49;;;;;;;;;;;;;;;18.83;59.13;101658.81;5050884;28;1841;-33
2022/03/28 12:27:35;;;;;;;;;;;;;;;18.78;57.50;101658.25;5048749;28;1570;-33
2022/03/28 12:30:04;;;;;;;;;;;;;;;18.69;53.56;101660.63;5031898;28;1983;-33
2022/03/28 12:32:33;;;;;;;;;;;;;;;18.72;56.88;101656.00;5046378;28;1698;-33
2022/03/28 12:35:00;;;;;;;;;;;;;;;18.79;55.45;101654.59;5036122;28;1796;-33
2022/03/28 12:37:28;;;;;;;;;;;;;;;18.73;55.48;101649.69;5055425;28;1426;-33
2022/03/28 12:40:00;;;;;;;;;;;;;;;18.69;55.08;101641.03;5040304;28;1667;-33
2022/03/28 12:42:33;;;;;;;;;;;;;;;18.79;54.81;101635.84;5054167;28;1523;-33
2022/03/28 12:47:42;;;;;;;;;;;;;;;18.74;55.04;101638.00;5050886;28;2358;-33
2022/03/28 12:50:16;;;;;;;;;;;;;;;18.58;56.15;101623.06;5051257;28;1975;-33
2022/03/28 12:52:43;;;;;;;;;;;;;;;18.50;55.64;101630.78;5058904;28;1845;-33
2022/03/28 12:55:12;;;;;;;;;;;;;;;18.49;55.82;101631.75;5048207;28;2015;-33
2022/03/28 12:57:39;;;;;;;;;;;;;;;18.47;55.48;101633.69;5044093;28;1397;-33
2022/03/28 13:00:08;;;;;;;;;;;;;;;18.46;56.32;101610.53;5037345;28;1699;-33
2022/03/28 13:02:35;;;;;;;;;;;;;;;18.45;55.49;101606.16;5049281;28;1758;-33
2022/03/28 13:05:16;;;;;;;;;;;;;;;18.44;55.31;101607.13;5048408;28;1567;-33
2022/03/28 13:07:43;;;;;;;;;;;;;;;18.43;55.30;101606.28;5059078;28;1518;-33
2022/03/28 13:10:19;;;;;;;;;;;;;;;18.38;54.93;101597.75;5041580;28;1992;-33
2022/03/28 13:12:56;;;;;;;;;;;;;;;18.38;54.17;101589.69;5044000;28;1748;-33
2022/03/28 13:15:25;;;;;;;;;;;;;;;18.36;55.42;101585.41;5046436;28;1322;-33
2022/03/28 13:17:58;;;;;;;;;;;;;;;18.32;55.11;101587.44;5046353;28;1544;-33
2022/03/28 13:20:26;;;;;;;;;;;;;;;18.31;55.29;101574.19;5052253;28;1787;-33
2022/03/28 13:22:55;;;;;;;;;;;;;;;18.26;55.12;101578.06;5043407;28;1923;-33
2022/03/28 13:25:30;;;;;;;;;;;;;;;18.27;55.04;101574.41;5052417;28;1993;-33
2022/03/28 13:28:06;;;;;;;;;;;;;;;18.28;54.63;101570.78;5051639;28;1609;-33
2022/03/28 13:30:42;;;;;;;;;;;;;;;18.26;55.03;101567.34;5048380;28;1906;-33
2022/03/28 13:33:12;;;;;;;;;;;;;;;18.26;54.58;101578.06;5054080;28;1571;-33
2022/03/28 13:35:45;;;;;;;;;;;;;;;18.29;53.93;101564.44;5051095;28;1533;-33
2022/03/28 13:38:25;;;;;;;;;;;;;;;18.26;53.58;101559.31;5049880;28;1799;-33
2022/03/28 13:40:56;;;;;;;;;;;;;;;18.27;54.04;101558.34;5060136;28;1584;-33
2022/03/28 13:43:26;;;;;;;;;;;;;;;18.26;53.85;101550.41;5055008;28;1969;-33
2022/03/28 13:45:53;;;;;;;;;;;;;;;18.26;54.08;101551.28;5069327;28;1718;-33
2022/03/28 13:48:24;;;;;;;;;;;;;;;18.24;53.81;101553.22;5059033;28;1879;-33
2022/03/28 13:50:58;;;;;;;;;;;;;;;18.26;53.68;101545.94;5051154;28;1906;-33
2022/03/28 13:53:26;;;;;;;;;;;;;;;18.23;51.99;101546.13;5046921;28;1791;-33
2022/03/28 13:55:52;;;;;;;;;;;;;;;18.25;54.08;101549.56;5052353;28;1619;-33
2022/03/28 13:58:21;;;;;;;;;;;;;;;18.23;54.14;101551.50;5062348;28;1836;-33
2022/03/28 14:00:51;;;;;;;;;;;;;;;18.22;54.07;101532.84;5043711;28;1466;-33
2022/03/28 14:03:17;;;;;;;;;;;;;;;18.17;54.46;101535.88;5059231;28;1691;-33
2022/03/28 14:05:51;;;;;;;;;;;;;;;18.17;54.37;101541.22;5045202;28;1365;-32
2022/03/28 14:08:20;;;;;;;;;;;;;;;18.17;53.84;101535.03;5054802;28;1912;-33
2022/03/28 14:10:50;;;;;;;;;;;;;;;18.16;54.11;101531.47;5058013;28;1980;-33
2022/03/28 14:13:17;;;;;;;;;;;;;;;18.17;53.49;101527.84;5057792;28;1793;-33
2022/03/28 14:15:45;;;;;;;;;;;;;;;18.16;53.58;101520.78;5042561;28;1843;-33
2022/03/28 14:18:14;;;;;;;;;;;;;;;18.13;53.65;101512.97;5040714;28;1647;-33
2022/03/28 14:20:40;;;;;;;;;;;;;;;18.16;52.90;101523.44;5064594;28;1692;-33
2022/03/28 14:23:08;;;;;;;;;;;;;;;18.24;52.77;101510.38;5054935;28;1961;-33
2022/03/28 14:25:39;;;;;;;;;;;;;;;18.46;51.15;101504.28;5053060;28;1539;-32
2022/03/28 14:28:06;;;;;;;;;;;;;;;18.54;52.25;101498.34;5057713;28;1637;-33
2022/03/28 14:30:36;;;;;;;;;;;;;;;18.51;52.73;101495.91;5045736;28;1902;-32
2022/03/28 14:33:03;;;;;;;;;;;;;;;18.51;53.42;101489.72;5055336;28;1693;-32
2022/03/28 14:35:31;;;;;;;;;;;;;;;18.53;53.87;101498.47;5055012;28;1645;-32
2022/03/28 14:37:59;;;;;;;;;;;;;;;18.51;53.82;101490.56;5044685;28;1711;-32
2022/03/28 14:40:36;;;;;;;;;;;;;;;18.50;54.15;101486.16;5054471;28;1768;-32
2022/03/28 14:43:07;;;;;;;;;;;;;;;18.52;54.73;101481.53;5053591;28;2002;-32
2022/03/28 14:46:59;;;;;;;;;;;;;;;18.54;55.08;101489.47;5044904;28;1683;-33
2022/03/28 14:48:26;;;;;;;;;;;;;;;18.51;55.61;101479.84;5057825;28;1427;-32
2022/03/28 14:50:52;;;;;;;;;;;;;;;18.53;55.16;101483.25;5053966;28;1902;-32
2022/03/28 14:53:19;;;;;;;;;;;;;;;18.57;55.61;101465.97;5061496;28;2162;-32
2022/03/28 14:55:49;;;;;;;;;;;;;;;18.54;55.58;101468.03;5051169;28;1522;-32
2022/03/28 14:58:19;;;;;;;;;;;;;;;18.20;55.84;101404.47;5056729;28;1509;-32
2022/03/28 15:00:48;;;;;;;;;;;;;;;18.50;56.25;101451.34;5045926;28;1677;-33
2022/03/28 15:03:17;;;;;;;;;;;;;;;18.51;55.85;101453.06;5055047;28;1633;-33
2022/03/28 15:05:44;;;;;;;;;;;;;;;18.48;55.92;101453.28;5041927;28;1655;-32
2022/03/28 15:08:13;;;;;;;;;;;;;;;18.51;56.33;101453.06;5057515;28;1878;-32
2022/03/28 15:10:42;;;;;;;;;;;;;;;18.52;56.70;101459.25;5053067;28;1910;-33
2022/03/28 15:13:10;;;;;;;;;;;;;;;18.47;56.79;101446.22;5050910;28;1791;-33
2022/03/28 15:15:43;;;;;;;;;;;;;;;18.53;56.86;101450.28;5046391;28;1723;-32
2022/03/28 15:18:10;;;;;;;;;;;;;;;18.54;56.76;101452.81;5041672;28;1802;-32
2022/03/28 15:20:38;;;;;;;;;;;;;;;18.51;56.68;101436.97;5040873;28;1700;-32
2022/03/28 15:23:06;;;;;;;;;;;;;;;18.48;57.38;101426.50;5043127;28;1696;-32
2022/03/28 15:28:13;;;;;;;;;;;;;;;18.48;57.29;101439.88;5046660;28;2500;-32
2022/03/28 15:31:11;;;;;;;;;;;;;;;18.51;56.92;101423.59;5041296;28;1910;-32
2022/03/28 15:33:37;;;;;;;;;;;;;;;18.44;56.01;101431.25;5049531;28;1890;-33
2022/03/28 15:36:05;;;;;;;;;;;;;;;18.36;56.21;101438.13;5038928;28;1724;-33
2022/03/28 15:41:13;;;;;;;;;;;;;;;18.36;56.56;101432.78;5047193;28;2240;-33
2022/03/28 15:43:42;;;;;;;;;;;;;;;18.24;56.83;101439.91;5042921;28;1509;-32
2022/03/28 15:46:12;;;;;;;;;;;;;;;18.26;56.85;101437.97;5044576;28;1496;-32
2022/03/28 15:48:46;;;;;;;;;;;;;;;18.36;56.77;101430.09;5058581;28;1836;-32
2022/03/28 15:51:13;;;;;;;;;;;;;;;18.60;56.34;101424.72;5052889;28;1906;-32
2022/03/28 15:53:43;;;;;;;;;;;;;;;18.67;56.13;101429.47;5062139;28;1746;-33
2022/03/28 16:01:50;;;;;;;;;;;;;;;19.08;54.83;101430.00;5051473;28;2354;-32
2022/03/28 16:04:23;;;;;;;;;;;;;;;19.78;53.44;101423.53;5051571;28;1557;-33
2022/03/28 16:06:54;;;;;;;;;;;;;;;19.66;54.00;101419.97;5054546;28;1712;-32
2022/03/28 16:09:24;;;;;;;;;;;;;;;19.42;53.91;101435.38;5058772;28;1897;-33
2022/03/28 16:11:53;;;;;;;;;;;;;;;19.13;54.35;101421.56;5041483;28;1508;-33
2022/03/28 16:14:23;;;;;;;;;;;;;;;18.90;55.67;101413.50;5050506;28;1559;-33
2022/03/28 16:17:01;;;;;;;;;;;;;;;18.92;55.82;101430.31;5042936;28;1899;-33
2022/03/28 16:19:30;;;;;;;;;;;;;;;18.92;55.44;101416.94;5048850;28;1777;-32
2022/03/28 16:21:56;;;;;;;;;;;;;;;18.95;55.98;101419.34;5052691;28;1731;-33
2022/03/28 16:24:24;;;;;;;;;;;;;;;18.83;55.57;101420.31;5055773;28;1868;-32
2022/03/28 16:26:52;;;;;;;;;;;;;;;18.73;55.57;101419.28;5054775;28;1556;-33
2022/03/28 16:29:21;;;;;;;;;;;;;;;18.74;56.47;101415.63;5050610;28;1623;-33
2022/03/28 16:31:51;;;;;;;;;;;;;;;18.84;56.89;101433.59;5045513;28;2064;-33
2022/03/28 16:34:24;;;;;;;;;;;;;;;18.84;56.46;101413.97;5045141;28;1943;-32
2022/03/28 16:36:50;;;;;;;;;;;;;;;18.79;57.07;101411.66;5056626;28;1908;-32
2022/03/28 16:39:19;;;;;;;;;;;;;;;18.79;57.67;101400.94;5056853;28;1782;-32
2022/03/28 16:41:49;;;;;;;;;;;;;;;18.73;57.51;101408.56;5044123;28;2450;-32
2022/03/28 16:44:17;;;;;;;;;;;;;;;18.69;57.09;101411.47;5053781;28;1549;-32
2022/03/28 16:46:46;;;;;;;;;;;;;;;18.65;57.70;101398.44;5053522;28;1732;-32
2022/03/28 16:49:15;;;;;;;;;;;;;;;18.71;58.30;101405.16;5037076;28;1703;-32
2022/03/28 16:51:52;;;;;;;;;;;;;;;18.68;57.80;101407.09;5048542;28;1906;-32
2022/03/28 16:54:22;;;;;;;;;;;;;;;18.72;57.85;101409.53;5043207;28;1724;-32
2022/03/28 16:56:56;;;;;;;;;;;;;;;18.76;57.67;101408.31;5043104;28;1790;-32